sensor_id;sensor_type;location;lat;lon;timestamp;P1;durP1;ratioP1;P2;durP2;ratioP2
83245;SDS011;73140;46.754;17.714;2024-03-07T00:01:20;3.42;;;3.13;;
83245;SDS011;73140;46.754;17.714;2024-03-07T00:03:47;3.38;;;3.08;;
83245;SDS011;73140;46.754;17.714;2024-03-07T00:06:12;4.07;;;3.78;;
83245;SDS011;73140;46.754;17.714;2024-03-07T00:08:38;3.60;;;3.30;;
83245;SDS011;73140;46.754;17.714;2024-03-07T00:11:06;3.33;;;3.03;;
83245;SDS011;73140;46.754;17.714;2024-03-07T00:13:32;3.53;;;3.22;;
83245;SDS011;73140;46.754;17.714;2024-03-07T00:15:59;3.53;;;3.22;;
83245;SDS011;73140;46.754;17.714;2024-03-07T00:18:25;3.33;;;3.03;;
83245;SDS011;73140;46.754;17.714;2024-03-07T00:20:52;3.58;;;3.28;;
83245;SDS011;73140;46.754;17.714;2024-03-07T00:23:17;3.40;;;3.10;;
83245;SDS011;73140;46.754;17.714;2024-03-07T00:25:43;3.33;;;3.03;;
83245;SDS011;73140;46.754;17.714;2024-03-07T00:28:11;3.55;;;3.25;;
83245;SDS011;73140;46.754;17.714;2024-03-07T00:30:37;3.33;;;3.03;;
83245;SDS011;73140;46.754;17.714;2024-03-07T00:33:03;3.30;;;3.00;;
83245;SDS011;73140;46.754;17.714;2024-03-07T00:35:29;3.55;;;3.25;;
83245;SDS011;73140;46.754;17.714;2024-03-07T00:37:55;3.85;;;3.05;;
83245;SDS011;73140;46.754;17.714;2024-03-07T00:40:22;3.22;;;2.92;;
83245;SDS011;73140;46.754;17.714;2024-03-07T00:42:48;3.42;;;3.13;;
83245;SDS011;73140;46.754;17.714;2024-03-07T00:45:16;3.40;;;3.10;;
83245;SDS011;73140;46.754;17.714;2024-03-07T00:47:42;2.90;;;2.70;;
83245;SDS011;73140;46.754;17.714;2024-03-07T00:50:09;3.33;;;3.03;;
83245;SDS011;73140;46.754;17.714;2024-03-07T00:52:35;3.20;;;3.00;;
83245;SDS011;73140;46.754;17.714;2024-03-07T00:55:02;2.90;;;2.70;;
83245;SDS011;73140;46.754;17.714;2024-03-07T00:57:28;2.90;;;2.70;;
83245;SDS011;73140;46.754;17.714;2024-03-07T00:59:54;3.33;;;3.03;;
83245;SDS011;73140;46.754;17.714;2024-03-07T01:02:23;3.50;;;3.20;;
83245;SDS011;73140;46.754;17.714;2024-03-07T01:04:50;3.25;;;2.95;;
83245;SDS011;73140;46.754;17.714;2024-03-07T01:07:16;3.03;;;2.80;;
83245;SDS011;73140;46.754;17.714;2024-03-07T01:09:42;3.35;;;3.05;;
83245;SDS011;73140;46.754;17.714;2024-03-07T01:12:08;3.40;;;3.10;;
83245;SDS011;73140;46.754;17.714;2024-03-07T01:14:35;3.20;;;2.90;;
83245;SDS011;73140;46.754;17.714;2024-03-07T01:17:01;3.60;;;3.30;;
83245;SDS011;73140;46.754;17.714;2024-03-07T01:19:28;2.75;;;2.50;;
83245;SDS011;73140;46.754;17.714;2024-03-07T01:21:54;2.92;;;2.72;;
83245;SDS011;73140;46.754;17.714;2024-03-07T01:24:20;3.45;;;3.15;;
83245;SDS011;73140;46.754;17.714;2024-03-07T01:26:48;3.03;;;2.72;;
83245;SDS011;73140;46.754;17.714;2024-03-07T01:29:13;3.30;;;3.00;;
83245;SDS011;73140;46.754;17.714;2024-03-07T01:31:39;3.25;;;2.95;;
83245;SDS011;73140;46.754;17.714;2024-03-07T01:34:05;3.33;;;3.03;;
83245;SDS011;73140;46.754;17.714;2024-03-07T01:36:33;3.22;;;3.00;;
83245;SDS011;73140;46.754;17.714;2024-03-07T01:38:58;2.83;;;2.63;;
83245;SDS011;73140;46.754;17.714;2024-03-07T01:41:24;3.55;;;3.25;;
83245;SDS011;73140;46.754;17.714;2024-03-07T01:43:50;3.15;;;2.85;;
83245;SDS011;73140;46.754;17.714;2024-03-07T01:46:16;2.90;;;2.70;;
83245;SDS011;73140;46.754;17.714;2024-03-07T01:48:42;3.35;;;3.05;;
83245;SDS011;73140;46.754;17.714;2024-03-07T01:51:08;3.35;;;3.05;;
83245;SDS011;73140;46.754;17.714;2024-03-07T01:53:36;3.20;;;2.90;;
83245;SDS011;73140;46.754;17.714;2024-03-07T01:56:02;3.22;;;2.92;;
83245;SDS011;73140;46.754;17.714;2024-03-07T01:58:29;3.50;;;3.20;;
83245;SDS011;73140;46.754;17.714;2024-03-07T02:00:58;3.30;;;3.00;;
83245;SDS011;73140;46.754;17.714;2024-03-07T02:03:25;3.05;;;2.75;;
83245;SDS011;73140;46.754;17.714;2024-03-07T02:05:51;3.90;;;3.60;;
83245;SDS011;73140;46.754;17.714;2024-03-07T02:08:17;3.40;;;3.10;;
83245;SDS011;73140;46.754;17.714;2024-03-07T02:10:46;3.50;;;3.20;;
83245;SDS011;73140;46.754;17.714;2024-03-07T02:13:12;3.20;;;2.90;;
83245;SDS011;73140;46.754;17.714;2024-03-07T02:15:38;3.65;;;3.35;;
83245;SDS011;73140;46.754;17.714;2024-03-07T02:18:04;3.40;;;3.13;;
83245;SDS011;73140;46.754;17.714;2024-03-07T02:20:30;3.50;;;3.20;;
83245;SDS011;73140;46.754;17.714;2024-03-07T02:22:58;3.35;;;3.05;;
83245;SDS011;73140;46.754;17.714;2024-03-07T02:25:24;3.35;;;3.05;;
83245;SDS011;73140;46.754;17.714;2024-03-07T02:27:50;2.97;;;2.67;;
83245;SDS011;73140;46.754;17.714;2024-03-07T02:30:16;3.47;;;3.17;;
83245;SDS011;73140;46.754;17.714;2024-03-07T02:32:45;3.30;;;3.00;;
83245;SDS011;73140;46.754;17.714;2024-03-07T02:35:17;3.53;;;3.22;;
83245;SDS011;73140;46.754;17.714;2024-03-07T02:37:43;3.28;;;2.97;;
83245;SDS011;73140;46.754;17.714;2024-03-07T02:40:13;3.38;;;3.08;;
83245;SDS011;73140;46.754;17.714;2024-03-07T02:42:39;3.40;;;3.10;;
83245;SDS011;73140;46.754;17.714;2024-03-07T02:45:05;3.47;;;3.17;;
83245;SDS011;73140;46.754;17.714;2024-03-07T02:47:31;3.65;;;3.03;;
83245;SDS011;73140;46.754;17.714;2024-03-07T02:49:57;3.30;;;3.00;;
83245;SDS011;73140;46.754;17.714;2024-03-07T02:52:23;3.40;;;3.10;;
83245;SDS011;73140;46.754;17.714;2024-03-07T02:54:49;3.45;;;3.15;;
83245;SDS011;73140;46.754;17.714;2024-03-07T02:57:16;3.67;;;3.28;;
83245;SDS011;73140;46.754;17.714;2024-03-07T02:59:42;2.83;;;2.63;;
83245;SDS011;73140;46.754;17.714;2024-03-07T03:02:08;3.25;;;2.95;;
83245;SDS011;73140;46.754;17.714;2024-03-07T03:04:34;3.20;;;3.00;;
83245;SDS011;73140;46.754;17.714;2024-03-07T03:07:00;3.45;;;3.15;;
83245;SDS011;73140;46.754;17.714;2024-03-07T03:09:26;3.17;;;2.88;;
83245;SDS011;73140;46.754;17.714;2024-03-07T03:11:53;3.10;;;2.85;;
83245;SDS011;73140;46.754;17.714;2024-03-07T03:14:20;3.30;;;3.00;;
83245;SDS011;73140;46.754;17.714;2024-03-07T03:16:46;2.97;;;2.78;;
83245;SDS011;73140;46.754;17.714;2024-03-07T03:19:12;3.13;;;2.83;;
83245;SDS011;73140;46.754;17.714;2024-03-07T03:21:38;3.03;;;2.70;;
83245;SDS011;73140;46.754;17.714;2024-03-07T03:24:04;3.08;;;2.88;;
83245;SDS011;73140;46.754;17.714;2024-03-07T03:26:32;3.30;;;3.00;;
83245;SDS011;73140;46.754;17.714;2024-03-07T03:28:58;3.58;;;3.28;;
83245;SDS011;73140;46.754;17.714;2024-03-07T03:31:25;3.88;;;3.58;;
83245;SDS011;73140;46.754;17.714;2024-03-07T03:33:51;3.22;;;2.92;;
83245;SDS011;73140;46.754;17.714;2024-03-07T03:36:17;2.90;;;2.70;;
83245;SDS011;73140;46.754;17.714;2024-03-07T03:38:44;3.13;;;2.83;;
83245;SDS011;73140;46.754;17.714;2024-03-07T03:41:14;3.60;;;3.30;;
83245;SDS011;73140;46.754;17.714;2024-03-07T03:43:40;3.30;;;3.00;;
83245;SDS011;73140;46.754;17.714;2024-03-07T03:46:09;3.45;;;3.15;;
83245;SDS011;73140;46.754;17.714;2024-03-07T03:48:37;3.70;;;3.40;;
83245;SDS011;73140;46.754;17.714;2024-03-07T03:51:03;3.13;;;2.85;;
83245;SDS011;73140;46.754;17.714;2024-03-07T03:53:29;3.40;;;3.10;;
83245;SDS011;73140;46.754;17.714;2024-03-07T03:55:55;2.80;;;2.60;;
83245;SDS011;73140;46.754;17.714;2024-03-07T03:58:22;3.50;;;3.20;;
83245;SDS011;73140;46.754;17.714;2024-03-07T04:00:48;2.95;;;2.75;;
83245;SDS011;73140;46.754;17.714;2024-03-07T04:03:14;2.88;;;2.67;;
83245;SDS011;73140;46.754;17.714;2024-03-07T04:05:41;3.10;;;2.72;;
83245;SDS011;73140;46.754;17.714;2024-03-07T04:08:07;2.80;;;2.60;;
83245;SDS011;73140;46.754;17.714;2024-03-07T04:10:35;3.53;;;3.22;;
83245;SDS011;73140;46.754;17.714;2024-03-07T04:13:01;2.90;;;2.70;;
83245;SDS011;73140;46.754;17.714;2024-03-07T04:15:27;2.88;;;2.67;;
83245;SDS011;73140;46.754;17.714;2024-03-07T04:17:56;3.13;;;2.80;;
83245;SDS011;73140;46.754;17.714;2024-03-07T04:20:22;2.78;;;2.58;;
83245;SDS011;73140;46.754;17.714;2024-03-07T04:22:51;2.83;;;2.63;;
83245;SDS011;73140;46.754;17.714;2024-03-07T04:25:17;2.70;;;2.50;;
83245;SDS011;73140;46.754;17.714;2024-03-07T04:27:43;2.88;;;2.67;;
83245;SDS011;73140;46.754;17.714;2024-03-07T04:30:10;2.63;;;2.42;;
83245;SDS011;73140;46.754;17.714;2024-03-07T04:32:36;2.72;;;2.53;;
83245;SDS011;73140;46.754;17.714;2024-03-07T04:35:03;2.70;;;2.50;;
83245;SDS011;73140;46.754;17.714;2024-03-07T04:37:32;2.90;;;2.70;;
83245;SDS011;73140;46.754;17.714;2024-03-07T04:40:04;3.53;;;3.22;;
83245;SDS011;73140;46.754;17.714;2024-03-07T04:42:40;2.88;;;2.67;;
83245;SDS011;73140;46.754;17.714;2024-03-07T04:45:08;3.00;;;2.80;;
83245;SDS011;73140;46.754;17.714;2024-03-07T04:47:36;3.00;;;2.80;;
83245;SDS011;73140;46.754;17.714;2024-03-07T04:50:02;3.08;;;2.85;;
83245;SDS011;73140;46.754;17.714;2024-03-07T04:52:30;2.72;;;2.53;;
83245;SDS011;73140;46.754;17.714;2024-03-07T04:54:56;2.63;;;2.42;;
83245;SDS011;73140;46.754;17.714;2024-03-07T04:57:23;2.78;;;2.58;;
83245;SDS011;73140;46.754;17.714;2024-03-07T04:59:49;3.00;;;2.78;;
83245;SDS011;73140;46.754;17.714;2024-03-07T05:02:15;2.90;;;2.70;;
83245;SDS011;73140;46.754;17.714;2024-03-07T05:04:41;2.67;;;2.47;;
83245;SDS011;73140;46.754;17.714;2024-03-07T05:07:06;2.65;;;2.45;;
83245;SDS011;73140;46.754;17.714;2024-03-07T05:09:32;3.10;;;2.80;;
83245;SDS011;73140;46.754;17.714;2024-03-07T05:11:59;2.70;;;2.50;;
83245;SDS011;73140;46.754;17.714;2024-03-07T05:14:26;2.75;;;2.55;;
83245;SDS011;73140;46.754;17.714;2024-03-07T05:16:52;2.83;;;2.63;;
83245;SDS011;73140;46.754;17.714;2024-03-07T05:19:38;2.65;;;2.45;;
83245;SDS011;73140;46.754;17.714;2024-03-07T05:22:04;3.53;;;3.22;;
83245;SDS011;73140;46.754;17.714;2024-03-07T05:24:30;3.35;;;3.05;;
83245;SDS011;73140;46.754;17.714;2024-03-07T05:26:58;3.00;;;2.80;;
83245;SDS011;73140;46.754;17.714;2024-03-07T05:29:25;3.30;;;3.00;;
83245;SDS011;73140;46.754;17.714;2024-03-07T05:31:52;3.00;;;2.80;;
83245;SDS011;73140;46.754;17.714;2024-03-07T05:34:18;3.28;;;2.97;;
83245;SDS011;73140;46.754;17.714;2024-03-07T05:36:44;3.08;;;2.88;;
83245;SDS011;73140;46.754;17.714;2024-03-07T05:39:12;3.25;;;3.00;;
83245;SDS011;73140;46.754;17.714;2024-03-07T05:41:38;3.20;;;2.90;;
83245;SDS011;73140;46.754;17.714;2024-03-07T05:44:04;2.50;;;2.30;;
83245;SDS011;73140;46.754;17.714;2024-03-07T05:46:36;2.72;;;2.53;;
83245;SDS011;73140;46.754;17.714;2024-03-07T05:49:06;2.80;;;2.60;;
83245;SDS011;73140;46.754;17.714;2024-03-07T05:51:32;2.90;;;2.70;;
83245;SDS011;73140;46.754;17.714;2024-03-07T05:53:58;2.55;;;2.35;;
83245;SDS011;73140;46.754;17.714;2024-03-07T05:56:24;2.63;;;2.42;;
83245;SDS011;73140;46.754;17.714;2024-03-07T05:58:50;2.65;;;2.45;;
83245;SDS011;73140;46.754;17.714;2024-03-07T06:01:16;2.45;;;2.25;;
83245;SDS011;73140;46.754;17.714;2024-03-07T06:03:45;2.38;;;2.17;;
83245;SDS011;73140;46.754;17.714;2024-03-07T06:06:11;2.42;;;2.22;;
83245;SDS011;73140;46.754;17.714;2024-03-07T06:08:37;2.80;;;2.47;;
83245;SDS011;73140;46.754;17.714;2024-03-07T06:11:07;2.38;;;2.17;;
83245;SDS011;73140;46.754;17.714;2024-03-07T06:13:33;3.05;;;2.58;;
83245;SDS011;73140;46.754;17.714;2024-03-07T06:15:59;2.20;;;2.00;;
83245;SDS011;73140;46.754;17.714;2024-03-07T06:18:29;2.42;;;2.22;;
83245;SDS011;73140;46.754;17.714;2024-03-07T06:20:58;2.50;;;2.30;;
83245;SDS011;73140;46.754;17.714;2024-03-07T06:23:24;2.30;;;2.10;;
83245;SDS011;73140;46.754;17.714;2024-03-07T06:25:54;2.60;;;2.40;;
83245;SDS011;73140;46.754;17.714;2024-03-07T06:28:21;2.35;;;2.15;;
83245;SDS011;73140;46.754;17.714;2024-03-07T06:30:47;2.55;;;2.35;;
83245;SDS011;73140;46.754;17.714;2024-03-07T06:33:13;2.50;;;2.30;;
83245;SDS011;73140;46.754;17.714;2024-03-07T06:35:39;2.72;;;2.53;;
83245;SDS011;73140;46.754;17.714;2024-03-07T06:38:08;2.47;;;2.25;;
83245;SDS011;73140;46.754;17.714;2024-03-07T06:40:35;2.35;;;2.15;;
83245;SDS011;73140;46.754;17.714;2024-03-07T06:43:01;2.45;;;2.25;;
83245;SDS011;73140;46.754;17.714;2024-03-07T06:45:31;2.40;;;2.20;;
83245;SDS011;73140;46.754;17.714;2024-03-07T06:47:57;2.50;;;2.30;;
83245;SDS011;73140;46.754;17.714;2024-03-07T06:50:24;2.60;;;2.40;;
83245;SDS011;73140;46.754;17.714;2024-03-07T06:52:49;2.75;;;2.55;;
83245;SDS011;73140;46.754;17.714;2024-03-07T06:55:17;2.60;;;2.40;;
83245;SDS011;73140;46.754;17.714;2024-03-07T06:57:44;2.63;;;2.42;;
83245;SDS011;73140;46.754;17.714;2024-03-07T07:00:11;2.80;;;2.60;;
83245;SDS011;73140;46.754;17.714;2024-03-07T07:02:37;2.65;;;2.45;;
83245;SDS011;73140;46.754;17.714;2024-03-07T07:05:04;2.47;;;2.28;;
83245;SDS011;73140;46.754;17.714;2024-03-07T07:07:36;2.30;;;2.10;;
83245;SDS011;73140;46.754;17.714;2024-03-07T07:10:02;2.13;;;1.92;;
83245;SDS011;73140;46.754;17.714;2024-03-07T07:12:30;2.00;;;1.80;;
83245;SDS011;73140;46.754;17.714;2024-03-07T07:14:56;2.15;;;1.90;;
83245;SDS011;73140;46.754;17.714;2024-03-07T07:17:22;2.15;;;1.95;;
83245;SDS011;73140;46.754;17.714;2024-03-07T07:19:50;2.20;;;2.00;;
83245;SDS011;73140;46.754;17.714;2024-03-07T07:22:17;2.30;;;2.10;;
83245;SDS011;73140;46.754;17.714;2024-03-07T07:24:43;2.33;;;2.13;;
83245;SDS011;73140;46.754;17.714;2024-03-07T07:27:09;1.98;;;1.88;;
83245;SDS011;73140;46.754;17.714;2024-03-07T07:29:37;2.10;;;1.90;;
83245;SDS011;73140;46.754;17.714;2024-03-07T07:32:03;2.20;;;2.00;;
83245;SDS011;73140;46.754;17.714;2024-03-07T07:34:30;2.40;;;2.20;;
83245;SDS011;73140;46.754;17.714;2024-03-07T07:36:56;2.38;;;2.10;;
83245;SDS011;73140;46.754;17.714;2024-03-07T07:39:22;2.22;;;2.03;;
83245;SDS011;73140;46.754;17.714;2024-03-07T07:41:48;2.38;;;2.17;;
83245;SDS011;73140;46.754;17.714;2024-03-07T07:44:15;2.15;;;1.95;;
83245;SDS011;73140;46.754;17.714;2024-03-07T07:46:42;2.10;;;1.90;;
83245;SDS011;73140;46.754;17.714;2024-03-07T07:49:09;2.03;;;1.83;;
83245;SDS011;73140;46.754;17.714;2024-03-07T07:51:35;2.20;;;2.00;;
83245;SDS011;73140;46.754;17.714;2024-03-07T07:54:01;2.33;;;2.13;;
83245;SDS011;73140;46.754;17.714;2024-03-07T07:56:27;2.10;;;1.90;;
83245;SDS011;73140;46.754;17.714;2024-03-07T07:58:53;2.00;;;1.80;;
83245;SDS011;73140;46.754;17.714;2024-03-07T08:01:19;1.83;;;1.67;;
83245;SDS011;73140;46.754;17.714;2024-03-07T08:03:47;1.70;;;1.60;;
83245;SDS011;73140;46.754;17.714;2024-03-07T08:06:13;1.45;;;1.30;;
83245;SDS011;73140;46.754;17.714;2024-03-07T08:08:39;1.60;;;1.42;;
83245;SDS011;73140;46.754;17.714;2024-03-07T08:11:05;1.50;;;1.40;;
83245;SDS011;73140;46.754;17.714;2024-03-07T08:13:31;1.50;;;1.40;;
83245;SDS011;73140;46.754;17.714;2024-03-07T08:15:57;1.20;;;1.02;;
83245;SDS011;73140;46.754;17.714;2024-03-07T08:18:23;1.00;;;0.90;;
83245;SDS011;73140;46.754;17.714;2024-03-07T08:20:50;1.00;;;0.80;;
83245;SDS011;73140;46.754;17.714;2024-03-07T08:23:17;0.70;;;0.60;;
83245;SDS011;73140;46.754;17.714;2024-03-07T08:25:43;0.90;;;0.70;;
83245;SDS011;73140;46.754;17.714;2024-03-07T08:28:09;0.80;;;0.68;;
83245;SDS011;73140;46.754;17.714;2024-03-07T08:30:34;0.80;;;0.65;;
83245;SDS011;73140;46.754;17.714;2024-03-07T08:33:01;0.80;;;0.60;;
83245;SDS011;73140;46.754;17.714;2024-03-07T08:35:30;0.95;;;0.70;;
83245;SDS011;73140;46.754;17.714;2024-03-07T08:37:58;0.70;;;0.50;;
83245;SDS011;73140;46.754;17.714;2024-03-07T08:40:24;0.52;;;0.40;;
83245;SDS011;73140;46.754;17.714;2024-03-07T08:42:51;0.70;;;0.50;;
83245;SDS011;73140;46.754;17.714;2024-03-07T08:45:19;0.70;;;0.50;;
83245;SDS011;73140;46.754;17.714;2024-03-07T08:47:46;0.60;;;0.50;;
83245;SDS011;73140;46.754;17.714;2024-03-07T08:50:13;0.60;;;0.50;;
83245;SDS011;73140;46.754;17.714;2024-03-07T08:52:40;0.80;;;0.50;;
83245;SDS011;73140;46.754;17.714;2024-03-07T08:55:08;0.50;;;0.30;;
83245;SDS011;73140;46.754;17.714;2024-03-07T08:57:40;0.63;;;0.40;;
83245;SDS011;73140;46.754;17.714;2024-03-07T09:00:07;0.40;;;0.30;;
83245;SDS011;73140;46.754;17.714;2024-03-07T09:02:34;0.40;;;0.30;;
83245;SDS011;73140;46.754;17.714;2024-03-07T09:05:00;0.40;;;0.40;;
83245;SDS011;73140;46.754;17.714;2024-03-07T09:07:27;0.60;;;0.40;;
83245;SDS011;73140;46.754;17.714;2024-03-07T09:09:54;0.65;;;0.50;;
83245;SDS011;73140;46.754;17.714;2024-03-07T09:12:22;0.70;;;0.40;;
83245;SDS011;73140;46.754;17.714;2024-03-07T09:14:50;0.50;;;0.43;;
83245;SDS011;73140;46.754;17.714;2024-03-07T09:17:17;0.43;;;0.40;;
83245;SDS011;73140;46.754;17.714;2024-03-07T09:19:43;0.52;;;0.50;;
83245;SDS011;73140;46.754;17.714;2024-03-07T09:22:10;0.60;;;0.40;;
83245;SDS011;73140;46.754;17.714;2024-03-07T09:24:36;0.57;;;0.40;;
83245;SDS011;73140;46.754;17.714;2024-03-07T09:27:03;0.30;;;0.30;;
83245;SDS011;73140;46.754;17.714;2024-03-07T09:29:31;0.60;;;0.50;;
83245;SDS011;73140;46.754;17.714;2024-03-07T09:31:57;0.52;;;0.40;;
83245;SDS011;73140;46.754;17.714;2024-03-07T09:34:24;0.40;;;0.40;;
83245;SDS011;73140;46.754;17.714;2024-03-07T09:36:50;0.85;;;0.50;;
83245;SDS011;73140;46.754;17.714;2024-03-07T09:39:17;0.80;;;0.50;;
83245;SDS011;73140;46.754;17.714;2024-03-07T09:41:44;0.50;;;0.40;;
83245;SDS011;73140;46.754;17.714;2024-03-07T09:44:11;0.65;;;0.50;;
83245;SDS011;73140;46.754;17.714;2024-03-07T09:46:44;0.50;;;0.40;;
83245;SDS011;73140;46.754;17.714;2024-03-07T09:49:11;0.75;;;0.60;;
83245;SDS011;73140;46.754;17.714;2024-03-07T09:51:39;0.55;;;0.50;;
83245;SDS011;73140;46.754;17.714;2024-03-07T09:54:05;0.47;;;0.40;;
83245;SDS011;73140;46.754;17.714;2024-03-07T09:56:31;0.75;;;0.50;;
83245;SDS011;73140;46.754;17.714;2024-03-07T09:58:58;0.70;;;0.50;;
83245;SDS011;73140;46.754;17.714;2024-03-07T10:01:25;0.60;;;0.43;;
83245;SDS011;73140;46.754;17.714;2024-03-07T10:03:56;0.65;;;0.50;;
83245;SDS011;73140;46.754;17.714;2024-03-07T10:06:35;0.50;;;0.40;;
83245;SDS011;73140;46.754;17.714;2024-03-07T10:09:01;0.50;;;0.40;;
83245;SDS011;73140;46.754;17.714;2024-03-07T10:11:29;1.58;;;0.68;;
83245;SDS011;73140;46.754;17.714;2024-03-07T10:13:55;0.90;;;0.60;;
83245;SDS011;73140;46.754;17.714;2024-03-07T10:16:21;0.60;;;0.45;;
83245;SDS011;73140;46.754;17.714;2024-03-07T10:18:48;0.70;;;0.50;;
83245;SDS011;73140;46.754;17.714;2024-03-07T10:21:20;0.50;;;0.40;;
83245;SDS011;73140;46.754;17.714;2024-03-07T10:23:46;0.40;;;0.40;;
83245;SDS011;73140;46.754;17.714;2024-03-07T10:26:12;0.70;;;0.40;;
83245;SDS011;73140;46.754;17.714;2024-03-07T10:28:38;0.70;;;0.50;;
83245;SDS011;73140;46.754;17.714;2024-03-07T10:31:05;0.70;;;0.50;;
83245;SDS011;73140;46.754;17.714;2024-03-07T10:33:36;0.50;;;0.40;;
83245;SDS011;73140;46.754;17.714;2024-03-07T10:36:03;0.60;;;0.50;;
83245;SDS011;73140;46.754;17.714;2024-03-07T10:38:37;0.80;;;0.70;;
83245;SDS011;73140;46.754;17.714;2024-03-07T10:41:04;0.88;;;0.60;;
83245;SDS011;73140;46.754;17.714;2024-03-07T10:43:35;0.85;;;0.60;;
83245;SDS011;73140;46.754;17.714;2024-03-07T10:46:05;0.55;;;0.40;;
83245;SDS011;73140;46.754;17.714;2024-03-07T10:48:33;0.55;;;0.40;;
83245;SDS011;73140;46.754;17.714;2024-03-07T10:51:06;0.65;;;0.50;;
83245;SDS011;73140;46.754;17.714;2024-03-07T10:53:49;0.77;;;0.60;;
83245;SDS011;73140;46.754;17.714;2024-03-07T10:56:29;0.75;;;0.50;;
83245;SDS011;73140;46.754;17.714;2024-03-07T10:59:07;0.70;;;0.40;;
83245;SDS011;73140;46.754;17.714;2024-03-07T11:01:44;0.60;;;0.40;;
83245;SDS011;73140;46.754;17.714;2024-03-07T11:04:15;0.50;;;0.40;;
83245;SDS011;73140;46.754;17.714;2024-03-07T11:06:43;0.63;;;0.50;;
83245;SDS011;73140;46.754;17.714;2024-03-07T11:09:11;0.50;;;0.50;;
83245;SDS011;73140;46.754;17.714;2024-03-07T11:11:38;0.45;;;0.32;;
83245;SDS011;73140;46.754;17.714;2024-03-07T11:14:09;0.30;;;0.30;;
83245;SDS011;73140;46.754;17.714;2024-03-07T11:16:37;0.40;;;0.30;;
83245;SDS011;73140;46.754;17.714;2024-03-07T11:21:55;0.57;;;0.40;;
83245;SDS011;73140;46.754;17.714;2024-03-07T11:24:27;2.17;;;0.85;;
83245;SDS011;73140;46.754;17.714;2024-03-07T11:26:54;0.57;;;0.40;;
83245;SDS011;73140;46.754;17.714;2024-03-07T11:32:09;0.50;;;0.35;;
83245;SDS011;73140;46.754;17.714;2024-03-07T11:34:37;0.50;;;0.40;;
83245;SDS011;73140;46.754;17.714;2024-03-07T11:37:06;0.68;;;0.40;;
83245;SDS011;73140;46.754;17.714;2024-03-07T11:39:44;0.50;;;0.47;;
83245;SDS011;73140;46.754;17.714;2024-03-07T11:42:19;0.45;;;0.40;;
83245;SDS011;73140;46.754;17.714;2024-03-07T11:44:47;0.68;;;0.50;;
83245;SDS011;73140;46.754;17.714;2024-03-07T11:47:13;0.40;;;0.40;;
83245;SDS011;73140;46.754;17.714;2024-03-07T11:49:40;0.47;;;0.38;;
83245;SDS011;73140;46.754;17.714;2024-03-07T11:52:06;0.40;;;0.30;;
83245;SDS011;73140;46.754;17.714;2024-03-07T11:54:38;0.50;;;0.40;;
83245;SDS011;73140;46.754;17.714;2024-03-07T11:57:12;0.50;;;0.40;;
83245;SDS011;73140;46.754;17.714;2024-03-07T11:59:40;0.45;;;0.40;;
83245;SDS011;73140;46.754;17.714;2024-03-07T12:02:11;0.47;;;0.40;;
83245;SDS011;73140;46.754;17.714;2024-03-07T12:04:39;0.43;;;0.40;;
83245;SDS011;73140;46.754;17.714;2024-03-07T12:07:05;0.40;;;0.32;;
83245;SDS011;73140;46.754;17.714;2024-03-07T12:09:32;0.38;;;0.38;;
83245;SDS011;73140;46.754;17.714;2024-03-07T12:12:01;0.50;;;0.50;;
83245;SDS011;73140;46.754;17.714;2024-03-07T12:14:29;0.60;;;0.50;;
83245;SDS011;73140;46.754;17.714;2024-03-07T12:16:55;0.40;;;0.30;;
83245;SDS011;73140;46.754;17.714;2024-03-07T12:19:22;0.63;;;0.45;;
83245;SDS011;73140;46.754;17.714;2024-03-07T12:21:48;0.57;;;0.40;;
83245;SDS011;73140;46.754;17.714;2024-03-07T12:24:15;0.40;;;0.30;;
83245;SDS011;73140;46.754;17.714;2024-03-07T12:26:41;0.30;;;0.30;;
83245;SDS011;73140;46.754;17.714;2024-03-07T12:29:11;0.47;;;0.40;;
83245;SDS011;73140;46.754;17.714;2024-03-07T12:31:41;0.40;;;0.40;;
83245;SDS011;73140;46.754;17.714;2024-03-07T12:34:08;0.35;;;0.30;;
83245;SDS011;73140;46.754;17.714;2024-03-07T12:36:37;0.43;;;0.35;;
83245;SDS011;73140;46.754;17.714;2024-03-07T12:39:21;0.50;;;0.40;;
83245;SDS011;73140;46.754;17.714;2024-03-07T12:41:51;0.60;;;0.50;;
83245;SDS011;73140;46.754;17.714;2024-03-07T12:44:18;0.30;;;0.22;;
83245;SDS011;73140;46.754;17.714;2024-03-07T12:46:47;0.30;;;0.30;;
83245;SDS011;73140;46.754;17.714;2024-03-07T12:49:13;0.30;;;0.30;;
83245;SDS011;73140;46.754;17.714;2024-03-07T12:51:40;0.45;;;0.35;;
83245;SDS011;73140;46.754;17.714;2024-03-07T12:54:07;0.57;;;0.40;;
83245;SDS011;73140;46.754;17.714;2024-03-07T12:56:35;0.35;;;0.30;;
83245;SDS011;73140;46.754;17.714;2024-03-07T12:59:02;0.30;;;0.30;;
83245;SDS011;73140;46.754;17.714;2024-03-07T13:01:29;0.80;;;0.52;;
83245;SDS011;73140;46.754;17.714;2024-03-07T13:03:57;1.17;;;0.50;;
83245;SDS011;73140;46.754;17.714;2024-03-07T13:06:23;0.60;;;0.40;;
83245;SDS011;73140;46.754;17.714;2024-03-07T13:11:21;0.40;;;0.30;;
83245;SDS011;73140;46.754;17.714;2024-03-07T13:13:48;0.40;;;0.30;;
83245;SDS011;73140;46.754;17.714;2024-03-07T13:16:14;0.40;;;0.30;;
83245;SDS011;73140;46.754;17.714;2024-03-07T13:18:40;0.47;;;0.32;;
83245;SDS011;73140;46.754;17.714;2024-03-07T13:21:08;0.40;;;0.30;;
83245;SDS011;73140;46.754;17.714;2024-03-07T13:23:36;0.60;;;0.40;;
83245;SDS011;73140;46.754;17.714;2024-03-07T13:26:04;0.40;;;0.30;;
83245;SDS011;73140;46.754;17.714;2024-03-07T13:28:34;0.30;;;0.30;;
83245;SDS011;73140;46.754;17.714;2024-03-07T13:31:00;0.57;;;0.45;;
83245;SDS011;73140;46.754;17.714;2024-03-07T13:35:58;0.40;;;0.30;;
83245;SDS011;73140;46.754;17.714;2024-03-07T13:38:27;0.43;;;0.40;;
83245;SDS011;73140;46.754;17.714;2024-03-07T13:40:53;0.50;;;0.40;;
83245;SDS011;73140;46.754;17.714;2024-03-07T13:43:19;0.50;;;0.43;;
83245;SDS011;73140;46.754;17.714;2024-03-07T13:45:45;0.50;;;0.40;;
83245;SDS011;73140;46.754;17.714;2024-03-07T13:48:13;0.60;;;0.40;;
83245;SDS011;73140;46.754;17.714;2024-03-07T13:50:42;0.30;;;0.30;;
83245;SDS011;73140;46.754;17.714;2024-03-07T13:53:14;0.47;;;0.47;;
83245;SDS011;73140;46.754;17.714;2024-03-07T13:56:16;0.55;;;0.50;;
83245;SDS011;73140;46.754;17.714;2024-03-07T14:02:25;0.60;;;0.45;;
83245;SDS011;73140;46.754;17.714;2024-03-07T14:05:27;0.80;;;0.50;;
83245;SDS011;73140;46.754;17.714;2024-03-07T14:11:31;0.70;;;0.50;;
83245;SDS011;73140;46.754;17.714;2024-03-07T14:14:21;0.52;;;0.40;;
83245;SDS011;73140;46.754;17.714;2024-03-07T14:23:25;0.70;;;0.60;;
83245;SDS011;73140;46.754;17.714;2024-03-07T14:29:16;0.45;;;0.40;;
83245;SDS011;73140;46.754;17.714;2024-03-07T14:31:52;0.50;;;0.40;;
83245;SDS011;73140;46.754;17.714;2024-03-07T14:34:20;0.70;;;0.50;;
83245;SDS011;73140;46.754;17.714;2024-03-07T14:36:56;1.20;;;0.60;;
83245;SDS011;73140;46.754;17.714;2024-03-07T14:39:28;0.60;;;0.50;;
83245;SDS011;73140;46.754;17.714;2024-03-07T14:41:55;0.52;;;0.40;;
83245;SDS011;73140;46.754;17.714;2024-03-07T14:44:25;0.40;;;0.40;;
83245;SDS011;73140;46.754;17.714;2024-03-07T14:46:55;0.63;;;0.60;;
83245;SDS011;73140;46.754;17.714;2024-03-07T14:49:26;0.40;;;0.30;;
83245;SDS011;73140;46.754;17.714;2024-03-07T14:51:53;0.63;;;0.50;;
83245;SDS011;73140;46.754;17.714;2024-03-07T14:54:19;0.50;;;0.50;;
83245;SDS011;73140;46.754;17.714;2024-03-07T14:56:46;0.52;;;0.40;;
83245;SDS011;73140;46.754;17.714;2024-03-07T14:59:12;0.65;;;0.52;;
83245;SDS011;73140;46.754;17.714;2024-03-07T15:01:40;0.43;;;0.32;;
83245;SDS011;73140;46.754;17.714;2024-03-07T15:04:09;0.38;;;0.30;;